Decoded Metar for BGTL (THULE in GREENLAND) (IATA:THU) | Meteo·Mobile Aviation Weather
aviador You're here:

BGTL Decoded Metar

THULE in GREENLAND
Report Time2018-10-19 19:56:00
UTC Time2018-10-19 20:34:35
Flight Rules vfr VFR
Wind120° at 08 kt
W.Decomp.*RWY 26: 0.1 kt HW 8 kt LCW
W.Rank120° ranks 4
Current wind is below 120° avg. (11.8)
Visibility9999 m
Phenomena:N/A
Clouds:N/A
Expected CloudBase > 800 ft AGL from Temp-Dew spread
CeilingNone
Temp-15°C (ISA -29)
Dew Point-17°C (85% RH)
AAT-21.3°C
QNH1004 hPa
Density Alt-3,143 ft
Elevation253 ft
Report Wrong Elevation
Raw Report
BGTL 191956Z AUTO 12008KT 9999 CLR M15/M17 A2964 RMK AO2 SLP027
T11471167 TSNO $=

Extra information for BGTL:More info

Metar Taf Metar & Taf Last 4 Metars F.Rules Stats Wind Profile Meteogram Temp Stats Airport Information Weather charts Add Link Nearby VenuesMetar ALERT Operation Metar Decoded Social comments